createdAt,value
2022-08-12T00:01:11.620Z,16.90
2022-08-12T00:03:56.757Z,16.90
2022-08-12T00:06:43.026Z,16.90
2022-08-12T00:09:28.356Z,17.00
2022-08-12T00:12:14.013Z,17.00
2022-08-12T00:15:02.438Z,17.00
2022-08-12T00:17:49.153Z,17.00
2022-08-12T00:20:34.718Z,17.10
2022-08-12T00:23:20.483Z,17.00
2022-08-12T00:26:23.294Z,16.90
2022-08-12T00:29:12.586Z,17.00
2022-08-12T00:32:00.491Z,17.00
2022-08-12T00:34:49.084Z,17.00
2022-08-12T00:37:39.464Z,16.90
2022-08-12T00:40:28.911Z,16.80
2022-08-12T00:42:57.498Z,16.90
2022-08-12T00:45:24.842Z,16.80
2022-08-12T00:47:53.665Z,16.90
2022-08-12T00:50:23.374Z,16.80
2022-08-12T00:52:52.803Z,16.80
2022-08-12T00:55:21.340Z,16.80
2022-08-12T00:57:50.819Z,16.80
2022-08-12T01:00:24.880Z,16.80
2022-08-12T01:02:58.604Z,16.70
2022-08-12T01:05:45.093Z,16.70
2022-08-12T01:08:31.305Z,16.70
2022-08-12T01:11:17.169Z,16.60
2022-08-12T01:13:48.850Z,16.60
2022-08-12T01:16:22.437Z,16.50
2022-08-12T01:18:51.948Z,16.50
2022-08-12T01:21:27.712Z,16.50
2022-08-12T01:24:31.180Z,16.40
2022-08-12T01:27:00.246Z,16.50
2022-08-12T01:29:33.020Z,16.40
2022-08-12T01:32:08.012Z,16.40
2022-08-12T01:34:38.675Z,16.40
2022-08-12T01:37:09.256Z,16.40
2022-08-12T01:40:32.029Z,16.40
2022-08-12T01:42:55.518Z,16.40
2022-08-12T01:45:24.579Z,16.30
2022-08-12T01:48:12.908Z,16.40
2022-08-12T01:51:13.384Z,16.30
2022-08-12T01:54:14.041Z,16.30
2022-08-12T01:56:59.641Z,16.20
2022-08-12T01:59:56.474Z,16.20
2022-08-12T02:02:37.161Z,16.20
2022-08-12T02:05:45.837Z,16.20
2022-08-12T02:09:10.734Z,16.10
2022-08-12T02:12:09.454Z,16.10
2022-08-12T02:14:46.249Z,16.10
2022-08-12T02:17:54.645Z,16.10
2022-08-12T02:20:52.005Z,16.00
2022-08-12T02:23:26.543Z,16.00
2022-08-12T02:25:59.584Z,15.90
2022-08-12T02:28:27.164Z,15.90
2022-08-12T02:30:55.623Z,15.80
2022-08-12T02:33:23.262Z,15.80
2022-08-12T02:35:51.536Z,15.70
2022-08-12T02:38:21.660Z,15.70
2022-08-12T02:40:54.875Z,15.60
2022-08-12T02:43:50.806Z,15.60
2022-08-12T02:46:29.143Z,15.50
2022-08-12T02:49:04.008Z,15.50
2022-08-12T02:51:34.868Z,15.50
2022-08-12T02:54:06.177Z,15.50
2022-08-12T02:56:50.286Z,15.50
2022-08-12T02:59:22.647Z,15.40
2022-08-12T03:01:56.581Z,15.40
2022-08-12T03:04:30.675Z,15.40
2022-08-12T03:07:14.411Z,15.40
2022-08-12T03:10:16.093Z,15.40
2022-08-12T03:12:49.050Z,15.30
2022-08-12T03:15:22.804Z,15.20
2022-08-12T03:18:29.277Z,15.20
2022-08-12T03:20:59.326Z,15.20
2022-08-12T03:23:30.830Z,15.20
2022-08-12T03:26:03.151Z,15.20
2022-08-12T03:28:54.236Z,15.20
2022-08-12T03:31:30.794Z,15.20
2022-08-12T03:34:07.046Z,15.20
2022-08-12T03:36:37.206Z,15.20
2022-08-12T03:39:16.701Z,15.20
2022-08-12T03:41:58.443Z,15.20
2022-08-12T03:45:51.614Z,15.20
2022-08-12T03:48:39.285Z,15.20
2022-08-12T03:51:24.855Z,15.10
2022-08-12T03:54:11.707Z,15.10
2022-08-12T03:56:58.125Z,15.10
2022-08-12T03:59:43.954Z,15.00
2022-08-12T04:02:17.750Z,15.10
2022-08-12T04:04:46.377Z,15.00
2022-08-12T04:07:16.142Z,14.90
2022-08-12T04:09:46.006Z,14.80
2022-08-12T04:12:32.635Z,14.80
2022-08-12T04:15:01.210Z,14.80
2022-08-12T04:17:28.591Z,14.80
2022-08-12T04:19:58.026Z,14.80
2022-08-12T04:22:30.269Z,14.80
2022-08-12T04:25:02.759Z,14.80
2022-08-12T04:27:31.914Z,14.90
2022-08-12T04:30:30.843Z,14.80
2022-08-12T04:32:49.953Z,14.90
2022-08-12T04:35:17.875Z,14.90
2022-08-12T04:37:58.983Z,14.90
2022-08-12T04:40:31.135Z,14.90
2022-08-12T04:43:01.113Z,15.00
2022-08-12T04:45:29.379Z,15.00
2022-08-12T04:47:56.877Z,15.00
2022-08-12T04:50:33.766Z,15.10
2022-08-12T04:53:08.936Z,15.10
2022-08-12T04:55:38.597Z,15.20
2022-08-12T04:58:07.257Z,15.20
2022-08-12T05:00:35.181Z,15.30
2022-08-12T05:03:02.174Z,15.40
2022-08-12T05:05:35.231Z,15.40
2022-08-12T05:08:03.993Z,15.50
2022-08-12T05:10:33.370Z,15.50
2022-08-12T05:13:09.403Z,15.60
2022-08-12T05:16:03.971Z,15.70
2022-08-12T05:18:29.228Z,15.80
2022-08-12T05:20:58.763Z,15.90
2022-08-12T05:23:26.076Z,16.00
2022-08-12T05:25:57.052Z,16.10
2022-08-12T05:28:27.014Z,16.20
2022-08-12T05:30:55.024Z,16.40
2022-08-12T05:33:26.505Z,16.50
2022-08-12T05:35:53.525Z,16.70
2022-08-12T05:38:39.334Z,16.80
2022-08-12T05:41:18.911Z,17.00
2022-08-12T05:44:08.045Z,17.10
2022-08-12T05:46:36.994Z,17.30
2022-08-12T05:49:05.551Z,17.40
2022-08-12T05:51:40.544Z,17.50
2022-08-12T05:54:09.146Z,17.60
2022-08-12T05:56:36.920Z,17.80
2022-08-12T05:59:09.318Z,18.00
2022-08-12T06:02:11.956Z,18.20
2022-08-12T06:04:24.018Z,18.40
2022-08-12T06:06:53.247Z,18.70
2022-08-12T06:09:22.341Z,18.90
2022-08-12T06:12:05.434Z,19.10
2022-08-12T06:14:38.814Z,19.40
2022-08-12T06:17:08.709Z,19.70
2022-08-12T06:20:22.810Z,20.10
2022-08-12T06:22:25.926Z,20.40
2022-08-12T06:24:53.469Z,20.50
2022-08-12T06:27:21.480Z,20.70
2022-08-12T06:30:09.343Z,20.90
2022-08-12T06:32:35.450Z,20.80
2022-08-12T06:35:24.167Z,21.00
2022-08-12T06:37:57.042Z,21.20
2022-08-12T06:40:44.176Z,21.40
2022-08-12T06:43:11.026Z,21.40
2022-08-12T06:45:47.201Z,21.70
2022-08-12T06:48:14.930Z,22.00
2022-08-12T06:50:42.551Z,22.20
2022-08-12T06:53:11.263Z,22.40
2022-08-12T06:55:39.396Z,22.50
2022-08-12T06:58:25.077Z,22.70
2022-08-12T07:00:52.132Z,23.00
2022-08-12T07:03:25.664Z,23.20
2022-08-12T07:05:52.562Z,23.10
2022-08-12T07:08:19.468Z,23.00
2022-08-12T07:10:57.314Z,23.00
2022-08-12T07:13:25.077Z,23.20
2022-08-12T07:15:56.526Z,23.30
2022-08-12T07:18:30.054Z,23.20
2022-08-12T07:20:58.213Z,23.20
2022-08-12T07:23:25.035Z,23.40
2022-08-12T07:25:56.445Z,23.20
2022-08-12T07:28:28.040Z,23.20
2022-08-12T07:30:57.188Z,23.30
2022-08-12T07:33:28.677Z,23.20
2022-08-12T07:35:58.306Z,23.30
2022-08-12T07:38:33.338Z,23.20
2022-08-12T07:41:15.743Z,23.30
2022-08-12T07:43:49.555Z,23.20
2022-08-12T07:46:39.099Z,23.40
2022-08-12T07:49:16.083Z,23.70
2022-08-12T07:51:44.741Z,23.70
2022-08-12T07:54:13.675Z,23.90
2022-08-12T07:56:43.251Z,23.70
2022-08-12T07:59:10.356Z,23.80
2022-08-12T08:01:38.345Z,23.70
2022-08-12T08:04:25.269Z,23.40
2022-08-12T08:06:52.423Z,23.30
2022-08-12T08:09:22.365Z,23.20
2022-08-12T08:12:08.192Z,23.50
2022-08-12T08:14:35.202Z,23.70
2022-08-12T08:17:03.681Z,23.60
2022-08-12T08:19:33.513Z,23.60
2022-08-12T08:22:32.032Z,23.80
2022-08-12T08:25:20.190Z,24.00
2022-08-12T08:27:54.840Z,24.10
2022-08-12T08:30:21.758Z,24.20
2022-08-12T08:32:48.716Z,24.20
2022-08-12T08:35:15.878Z,24.30
2022-08-12T08:37:46.958Z,24.30
2022-08-12T08:40:34.087Z,24.30
2022-08-12T08:43:01.195Z,24.20
2022-08-12T08:45:28.737Z,24.50
2022-08-12T08:48:00.091Z,24.80
2022-08-12T08:50:27.503Z,25.00
2022-08-12T08:52:54.351Z,25.10
2022-08-12T08:55:30.028Z,25.20
2022-08-12T08:58:00.354Z,25.10
2022-08-12T09:00:27.552Z,25.00
2022-08-12T09:02:58.673Z,25.20
2022-08-12T09:05:27.919Z,25.50
2022-08-12T09:08:09.101Z,25.80
2022-08-12T09:10:45.346Z,25.50
2022-08-12T09:13:29.377Z,25.50
2022-08-12T09:16:16.309Z,25.60
2022-08-12T09:18:52.147Z,25.50
2022-08-12T09:21:54.095Z,25.70
2022-08-12T09:24:22.224Z,25.80
2022-08-12T09:26:49.687Z,25.70
2022-08-12T09:30:10.787Z,25.60
2022-08-12T09:32:11.580Z,25.50
2022-08-12T09:34:56.817Z,25.30
2022-08-12T09:37:26.483Z,25.20
2022-08-12T09:40:05.288Z,25.20
2022-08-12T09:43:16.798Z,25.20
2022-08-12T09:46:12.070Z,25.30
2022-08-12T09:48:36.589Z,25.50
2022-08-12T09:51:17.086Z,25.60
2022-08-12T09:54:05.494Z,25.60
2022-08-12T09:56:58.401Z,25.40
2022-08-12T10:00:17.330Z,25.60
2022-08-12T10:02:45.959Z,25.80
2022-08-12T10:04:59.483Z,25.70
2022-08-12T10:07:28.676Z,25.70
2022-08-12T10:10:23.056Z,25.70
2022-08-12T10:13:40.050Z,25.80
2022-08-12T10:16:06.352Z,26.20
2022-08-12T10:18:37.265Z,26.80
2022-08-12T10:21:37.533Z,26.90
2022-08-12T10:24:08.285Z,27.10
2022-08-12T10:26:56.621Z,27.50
2022-08-12T10:30:03.670Z,27.90
2022-08-12T10:32:44.341Z,28.10
2022-08-12T10:35:15.344Z,27.40
2022-08-12T10:38:33.380Z,27.00
2022-08-12T10:40:33.420Z,27.00
2022-08-12T10:43:20.097Z,27.20
2022-08-12T10:45:51.731Z,27.40
2022-08-12T10:48:27.110Z,28.00
2022-08-12T10:51:51.830Z,28.10
2022-08-12T10:54:00.972Z,28.10
2022-08-12T10:56:34.836Z,28.50
2022-08-12T10:59:05.105Z,29.00
2022-08-12T11:04:18.410Z,28.90
2022-08-12T11:04:34.192Z,29.40
2022-08-12T11:08:35.126Z,29.00
2022-08-12T11:10:00.787Z,29.30
2022-08-12T11:12:56.674Z,29.10
2022-08-12T11:15:32.938Z,28.30
2022-08-12T11:18:07.652Z,28.10
2022-08-12T11:20:39.585Z,28.00
2022-08-12T11:23:25.206Z,28.30
2022-08-12T11:25:57.517Z,27.40
2022-08-12T11:28:34.152Z,27.70
2022-08-12T11:31:04.078Z,27.80
2022-08-12T11:34:04.362Z,27.70
2022-08-12T11:36:18.282Z,27.60
2022-08-12T11:38:50.792Z,27.80
2022-08-12T11:41:31.721Z,28.10
2022-08-12T11:44:35.278Z,28.40
2022-08-12T11:46:53.231Z,28.40
2022-08-12T11:49:30.826Z,28.70
2022-08-12T11:52:02.006Z,29.20
2022-08-12T11:54:30.175Z,29.60
2022-08-12T11:57:02.521Z,29.70
2022-08-12T12:02:21.312Z,30.00
2022-08-12T12:04:52.571Z,30.10
2022-08-12T12:07:22.568Z,30.40
2022-08-12T12:09:52.899Z,30.20
2022-08-12T12:12:22.898Z,30.20
2022-08-12T12:14:54.673Z,30.40
2022-08-12T12:17:38.003Z,30.60
2022-08-12T12:20:09.358Z,30.40
2022-08-12T12:22:41.773Z,30.00
2022-08-12T12:25:12.864Z,29.40
2022-08-12T12:28:04.018Z,29.20
2022-08-12T12:30:37.238Z,29.00
2022-08-12T12:33:06.196Z,28.20
2022-08-12T12:36:17.148Z,28.40
2022-08-12T12:38:21.057Z,28.20
2022-08-12T12:40:52.963Z,28.50
2022-08-12T12:43:28.687Z,28.50
2022-08-12T12:46:08.773Z,28.90
2022-08-12T12:48:35.747Z,28.90
2022-08-12T12:51:48.465Z,28.90
2022-08-12T12:54:07.523Z,28.40
2022-08-12T12:56:40.364Z,28.50
2022-08-12T12:59:07.476Z,28.50
2022-08-12T13:01:55.093Z,29.20
2022-08-12T13:04:22.531Z,29.10
2022-08-12T13:06:52.068Z,28.80
2022-08-12T13:09:22.801Z,29.30
2022-08-12T13:11:53.478Z,29.20
2022-08-12T13:14:28.275Z,29.20
2022-08-12T13:16:57.462Z,29.60
2022-08-12T13:19:37.478Z,30.10
2022-08-12T13:22:18.456Z,29.90
2022-08-12T13:24:54.507Z,29.90
2022-08-12T13:27:36.415Z,29.50
2022-08-12T13:30:11.282Z,29.50
2022-08-12T13:32:40.577Z,29.90
2022-08-12T13:35:20.284Z,30.30
2022-08-12T13:37:57.257Z,30.30
2022-08-12T13:40:28.395Z,30.30
2022-08-12T13:43:01.702Z,30.50
2022-08-12T13:45:31.106Z,30.90
2022-08-12T13:48:03.777Z,31.10
2022-08-12T13:50:36.240Z,30.00
2022-08-12T13:53:24.061Z,29.30
2022-08-12T13:55:59.446Z,29.10
2022-08-12T13:58:30.199Z,29.20
2022-08-12T14:00:58.549Z,29.20
2022-08-12T14:03:28.636Z,29.30
2022-08-12T14:06:15.387Z,29.70
2022-08-12T14:08:43.268Z,29.70
2022-08-12T14:11:12.617Z,29.50
2022-08-12T14:14:03.754Z,30.10
2022-08-12T14:16:37.384Z,29.50
2022-08-12T14:19:22.577Z,29.60
2022-08-12T14:22:00.815Z,30.20
2022-08-12T14:24:36.951Z,31.20
2022-08-12T14:27:10.420Z,32.20
2022-08-12T14:30:04.483Z,33.60
2022-08-12T14:32:34.639Z,32.60
2022-08-12T14:35:05.106Z,32.50
2022-08-12T14:37:55.574Z,32.30
2022-08-12T14:40:27.763Z,32.50
2022-08-12T14:42:57.100Z,32.70
2022-08-12T14:45:37.191Z,33.70
2022-08-12T14:48:13.388Z,33.80
2022-08-12T14:51:09.568Z,33.70
2022-08-12T14:59:57.380Z,33.60
2022-08-12T15:02:26.445Z,34.40
2022-08-12T15:04:58.989Z,33.50
2022-08-12T15:07:33.786Z,32.10
2022-08-12T15:10:31.237Z,31.20
2022-08-12T15:12:59.065Z,30.10
2022-08-12T15:15:25.892Z,29.20
2022-08-12T15:18:02.464Z,28.40
2022-08-12T15:20:37.593Z,28.00
2022-08-12T15:23:17.524Z,27.60
2022-08-12T15:26:02.911Z,27.40
2022-08-12T15:28:34.121Z,27.80
2022-08-12T15:31:02.681Z,29.60
2022-08-12T15:33:46.016Z,30.70
2022-08-12T15:36:14.614Z,30.20
2022-08-12T15:38:46.434Z,28.90
2022-08-12T15:41:15.330Z,28.20
2022-08-12T15:44:17.128Z,27.50
2022-08-12T15:46:32.532Z,27.10
2022-08-12T15:48:59.529Z,27.10
2022-08-12T15:51:59.921Z,26.80
2022-08-12T15:54:33.781Z,26.80
2022-08-12T15:57:07.556Z,26.80
2022-08-12T15:59:51.986Z,26.80
2022-08-12T16:02:29.796Z,26.60
2022-08-12T16:04:57.601Z,26.40
2022-08-12T16:07:26.000Z,25.90
2022-08-12T16:10:05.367Z,25.50
2022-08-12T16:12:55.009Z,25.00
2022-08-12T16:15:26.351Z,24.80
2022-08-12T16:18:20.030Z,24.70
2022-08-12T16:20:42.548Z,24.60
2022-08-12T16:23:26.703Z,24.60
2022-08-12T16:26:14.904Z,24.40
2022-08-12T16:28:44.342Z,24.00
2022-08-12T16:31:22.605Z,24.00
2022-08-12T16:33:59.849Z,24.00
2022-08-12T16:36:29.440Z,24.00
2022-08-12T16:38:56.917Z,24.00
2022-08-12T16:41:23.880Z,24.10
2022-08-12T16:43:53.293Z,24.10
2022-08-12T16:46:31.787Z,24.20
2022-08-12T16:49:08.658Z,24.20
2022-08-12T16:51:41.792Z,24.10
2022-08-12T16:54:16.115Z,24.00
2022-08-12T16:56:55.337Z,24.00
2022-08-12T16:59:52.728Z,23.90
2022-08-12T17:02:30.081Z,23.80
2022-08-12T17:05:04.626Z,23.70
2022-08-12T17:07:38.138Z,23.60
2022-08-12T17:10:13.838Z,23.60
2022-08-12T17:12:45.419Z,23.50
2022-08-12T17:15:50.904Z,23.50
2022-08-12T17:18:39.333Z,23.40
2022-08-12T17:20:49.559Z,23.30
2022-08-12T17:23:19.261Z,23.30
2022-08-12T17:25:52.910Z,23.30
2022-08-12T17:28:21.403Z,23.20
2022-08-12T17:30:57.312Z,23.20
2022-08-12T17:33:27.776Z,23.10
2022-08-12T17:36:02.845Z,23.10
2022-08-12T17:38:29.694Z,23.00
2022-08-12T17:40:57.653Z,22.90
2022-08-12T17:43:57.797Z,23.00
2022-08-12T17:46:23.633Z,22.90
2022-08-12T17:48:54.902Z,22.90
2022-08-12T17:51:24.283Z,22.80
2022-08-12T17:54:11.256Z,22.80
2022-08-12T17:56:41.147Z,22.70
2022-08-12T17:59:12.475Z,22.70
2022-08-12T18:01:44.453Z,22.60
2022-08-12T18:04:23.166Z,22.60
2022-08-12T18:07:02.259Z,22.50
2022-08-12T18:09:32.066Z,22.50
2022-08-12T18:12:24.494Z,22.30
2022-08-12T18:15:01.887Z,22.20
2022-08-12T18:17:31.306Z,22.10
2022-08-12T18:20:05.480Z,22.10
2022-08-12T18:22:36.276Z,22.10
2022-08-12T18:26:12.730Z,21.90
2022-08-12T18:28:15.404Z,21.80
2022-08-12T18:30:52.206Z,21.70
2022-08-12T18:33:24.599Z,21.60
2022-08-12T18:35:55.706Z,21.50
2022-08-12T18:38:25.829Z,21.40
2022-08-12T18:41:21.590Z,21.30
2022-08-12T18:44:01.253Z,21.20
2022-08-12T18:46:55.338Z,21.00
2022-08-12T18:49:34.894Z,20.90
2022-08-12T18:52:07.762Z,20.80
2022-08-12T18:54:53.313Z,20.60
2022-08-12T18:58:06.222Z,20.60
2022-08-12T19:00:21.181Z,20.40
2022-08-12T19:02:51.072Z,20.30
2022-08-12T19:05:17.930Z,20.20
2022-08-12T19:08:00.148Z,20.20
2022-08-12T19:10:30.230Z,20.10
2022-08-12T19:13:23.530Z,20.00
2022-08-12T19:15:54.538Z,19.90
2022-08-12T19:18:25.760Z,19.80
2022-08-12T19:20:56.714Z,19.70
2022-08-12T19:23:25.421Z,19.70
2022-08-12T19:26:05.069Z,19.70
2022-08-12T19:28:34.437Z,19.70
2022-08-12T19:31:44.586Z,19.60
2022-08-12T19:36:14.470Z,19.50
2022-08-12T19:38:03.546Z,19.50
2022-08-12T19:40:32.951Z,19.40
2022-08-12T19:43:20.214Z,19.40
2022-08-12T19:45:56.783Z,19.30
2022-08-12T19:48:30.412Z,19.30
2022-08-12T19:50:58.086Z,19.20
2022-08-12T19:53:27.454Z,19.10
2022-08-12T19:55:57.312Z,19.20
2022-08-12T19:58:24.949Z,19.10
2022-08-12T20:00:53.762Z,19.10
2022-08-12T20:03:40.435Z,19.00
2022-08-12T20:06:16.020Z,19.10
2022-08-12T20:08:56.503Z,19.00
2022-08-12T20:12:12.720Z,19.00
2022-08-12T20:14:19.843Z,19.00
2022-08-12T20:16:57.828Z,18.90
2022-08-12T20:20:01.620Z,18.90
2022-08-12T20:22:23.979Z,18.80
2022-08-12T20:24:55.219Z,18.80
2022-08-12T20:27:29.691Z,18.80
2022-08-12T20:30:13.551Z,18.70
2022-08-12T20:32:55.469Z,18.70
2022-08-12T20:35:25.139Z,18.60
2022-08-12T20:38:26.556Z,18.60
2022-08-12T20:40:55.838Z,18.50
2022-08-12T20:43:28.444Z,18.50
2022-08-12T20:45:59.200Z,18.50
2022-08-12T20:48:29.379Z,18.50
2022-08-12T20:51:04.214Z,18.50
2022-08-12T20:53:54.291Z,18.50
2022-08-12T20:56:36.686Z,18.40
2022-08-12T20:59:10.431Z,18.40
2022-08-12T21:01:47.784Z,18.30
2022-08-12T21:04:36.598Z,18.30
2022-08-12T21:07:09.457Z,18.30
2022-08-12T21:09:44.136Z,18.30
2022-08-12T21:12:27.614Z,18.20
2022-08-12T21:15:16.596Z,18.20
2022-08-12T21:18:08.885Z,18.10
2022-08-12T21:20:35.514Z,18.00
2022-08-12T21:23:05.735Z,17.90
2022-08-12T21:25:44.481Z,17.90
2022-08-12T21:28:14.036Z,17.90
2022-08-12T21:31:11.222Z,17.80
2022-08-12T21:33:32.134Z,17.80
2022-08-12T21:36:22.662Z,17.80
2022-08-12T21:39:35.817Z,17.70
2022-08-12T21:42:06.942Z,17.70
2022-08-12T21:45:46.608Z,17.60
2022-08-12T21:47:24.244Z,17.60
2022-08-12T21:50:06.626Z,17.50
2022-08-12T21:52:41.013Z,17.50
2022-08-12T21:55:18.784Z,17.40
2022-08-12T21:57:54.933Z,17.30
2022-08-12T22:00:34.281Z,17.30
2022-08-12T22:04:03.694Z,17.30
2022-08-12T22:06:31.236Z,17.30
2022-08-12T22:09:17.237Z,17.20
2022-08-12T22:11:58.650Z,17.20
2022-08-12T22:14:28.761Z,17.10
2022-08-12T22:16:57.958Z,17.10
2022-08-12T22:19:26.769Z,17.10
2022-08-12T22:21:55.879Z,17.10
2022-08-12T22:24:26.419Z,17.10
2022-08-12T22:26:55.491Z,17.10
2022-08-12T22:29:40.799Z,17.00
2022-08-12T22:32:11.515Z,16.90
2022-08-12T22:34:39.478Z,16.80
2022-08-12T22:37:19.858Z,16.70
2022-08-12T22:39:49.183Z,16.70
2022-08-12T22:42:41.023Z,16.60
2022-08-12T22:45:27.555Z,16.60
2022-08-12T22:47:56.036Z,16.50
2022-08-12T22:50:28.531Z,16.50
2022-08-12T22:53:15.160Z,16.40
2022-08-12T22:56:00.501Z,16.30
2022-08-12T22:58:33.537Z,16.30
2022-08-12T23:01:01.898Z,16.20
2022-08-12T23:03:48.281Z,16.10
2022-08-12T23:06:23.674Z,16.10
2022-08-12T23:08:52.352Z,16.10
2022-08-12T23:11:23.508Z,16.10
2022-08-12T23:13:54.947Z,16.10
2022-08-12T23:16:31.616Z,16.00
2022-08-12T23:19:23.221Z,16.00
2022-08-12T23:22:06.761Z,16.10
2022-08-12T23:24:55.541Z,16.10
2022-08-12T23:27:52.051Z,16.00
2022-08-12T23:30:32.307Z,16.10
2022-08-12T23:33:13.121Z,16.10
2022-08-12T23:35:54.062Z,16.00
2022-08-12T23:38:32.236Z,15.90
2022-08-12T23:41:02.266Z,15.80
2022-08-12T23:43:39.897Z,15.70
2022-08-12T23:46:19.208Z,15.70
2022-08-12T23:48:48.084Z,15.60
2022-08-12T23:51:22.353Z,15.60
2022-08-12T23:54:00.136Z,15.60
2022-08-12T23:56:32.846Z,15.50
2022-08-12T23:59:07.688Z,15.50
